Time;durP1;ratioP1;P1;durP2;ratioP2;P2;SDS_P1;SDS_P2;PMS_P1;PMS_P2;Temp;Humidity;BMP_temperature;BMP_pressure;BME280_temperature;BME280_humidity;BME280_pressure;Samples;Min_cycle;Max_cycle;Signal;HPM_P1;HPM_P2
2020/12/03 00:01:09;;;;;;;43.75;23.58;;;10.70;75.60;;;;;;5027982;28;20030;-76
2020/12/03 00:03:43;;;;;;;43.97;23.35;;;10.70;75.50;;;;;;5028119;28;20038;-76
2020/12/03 00:06:19;;;;;;;45.63;23.13;;;10.70;75.50;;;;;;5019026;28;20034;-76
2020/12/03 00:08:52;;;;;;;43.45;23.25;;;10.80;75.50;;;;;;5007905;28;20033;-76
2020/12/03 00:11:19;;;;;;;43.83;22.45;;;10.80;75.50;;;;;;5009213;28;20144;-76
2020/12/03 00:13:44;;;;;;;45.40;25.17;;;10.70;75.50;;;;;;5005747;28;20021;-75
2020/12/03 00:16:10;;;;;;;49.47;25.45;;;10.70;75.30;;;;;;5026084;28;20032;-76
2020/12/03 00:18:37;;;;;;;47.95;25.85;;;10.70;75.30;;;;;;5025579;28;20141;-76
2020/12/03 00:21:06;;;;;;;46.10;24.88;;;10.70;75.30;;;;;;4996822;28;20034;-76
2020/12/03 00:23:32;;;;;;;41.72;24.00;;;10.60;75.20;;;;;;5027821;28;20115;-76
2020/12/03 00:25:58;;;;;;;47.95;26.17;;;10.60;75.30;;;;;;5012257;28;20048;-76
2020/12/03 00:28:29;;;;;;;46.42;25.48;;;10.60;75.30;;;;;;5010566;28;20029;-76
2020/12/03 00:30:54;;;;;;;48.25;25.30;;;10.60;75.30;;;;;;5030429;28;20065;-76
2020/12/03 00:33:20;;;;;;;46.75;25.10;;;10.60;75.30;;;;;;5012067;28;20107;-75
2020/12/03 00:35:50;;;;;;;54.00;29.42;;;10.60;75.40;;;;;;5029610;28;20037;-76
2020/12/03 00:38:21;;;;;;;51.00;28.08;;;10.60;75.40;;;;;;5027625;28;20029;-76
2020/12/03 00:40:47;;;;;;;51.95;28.45;;;10.60;75.30;;;;;;5028728;28;20052;-76
2020/12/03 00:43:15;;;;;;;52.13;27.63;;;10.60;75.30;;;;;;5029195;28;20061;-75
2020/12/03 00:45:42;;;;;;;45.80;23.83;;;10.60;75.40;;;;;;5025467;28;20022;-75
2020/12/03 00:48:08;;;;;;;60.17;29.88;;;10.60;75.40;;;;;;5010324;28;20184;-76
2020/12/03 00:50:33;;;;;;;58.72;30.67;;;10.60;75.40;;;;;;5030499;28;20045;-76
2020/12/03 00:52:59;;;;;;;56.30;29.67;;;10.60;75.50;;;;;;5026667;28;20025;-76
2020/12/03 00:55:25;;;;;;;50.75;28.92;;;10.50;75.60;;;;;;5032125;28;20030;-76
2020/12/03 00:57:51;;;;;;;51.13;28.80;;;10.60;75.60;;;;;;5033452;28;20037;-76
2020/12/03 01:00:19;;;;;;;46.40;26.08;;;10.60;75.70;;;;;;5025166;28;20103;-75
2020/12/03 01:02:45;;;;;;;54.67;26.95;;;10.70;75.60;;;;;;5025167;28;20026;-76
2020/12/03 01:05:12;;;;;;;60.65;29.80;;;10.70;75.40;;;;;;5012113;28;20021;-76
2020/12/03 01:07:38;;;;;;;50.95;27.85;;;10.70;75.30;;;;;;5033345;28;20033;-76
2020/12/03 01:10:07;;;;;;;51.17;28.02;;;10.70;75.40;;;;;;5030407;28;20132;-76
2020/12/03 01:12:33;;;;;;;47.58;24.77;;;10.80;75.40;;;;;;5023889;28;20080;-76
2020/12/03 01:14:59;;;;;;;49.45;26.25;;;10.80;75.30;;;;;;5015704;28;20038;-76
2020/12/03 01:17:25;;;;;;;50.05;28.48;;;10.80;75.20;;;;;;5028851;28;20034;-76
2020/12/03 01:19:51;;;;;;;48.22;28.38;;;10.80;75.20;;;;;;5035091;28;20056;-76
2020/12/03 01:22:17;;;;;;;56.20;30.67;;;10.80;75.00;;;;;;5029174;28;20034;-76
2020/12/03 01:24:42;;;;;;;47.80;27.02;;;10.70;75.10;;;;;;5013774;28;20502;-76
2020/12/03 01:27:10;;;;;;;49.58;27.98;;;10.70;75.20;;;;;;5006238;28;20125;-76
2020/12/03 01:29:36;;;;;;;49.72;27.95;;;10.60;75.30;;;;;;5033611;28;20040;-75
2020/12/03 01:32:02;;;;;;;50.22;26.45;;;10.60;75.20;;;;;;5033036;28;20082;-76
2020/12/03 01:34:28;;;;;;;44.47;25.23;;;10.70;75.40;;;;;;5015061;28;20387;-75
2020/12/03 01:36:53;;;;;;;54.85;28.75;;;10.70;75.30;;;;;;5031847;28;20029;-76
2020/12/03 01:39:20;;;;;;;50.15;28.00;;;10.70;75.30;;;;;;5015992;28;20396;-76
2020/12/03 01:41:46;;;;;;;52.72;27.52;;;10.60;75.30;;;;;;5033859;28;20041;-76
2020/12/03 01:44:13;;;;;;;49.38;28.05;;;10.60;75.20;;;;;;5032274;28;20026;-75
2020/12/03 01:46:40;;;;;;;49.70;27.95;;;10.60;75.50;;;;;;5015864;28;20029;-75
2020/12/03 01:49:27;;;;;;;56.03;29.95;;;10.60;75.50;;;;;;5016158;28;20125;-76
2020/12/03 01:51:54;;;;;;;52.05;28.52;;;10.60;75.30;;;;;;5031446;28;20034;-76
2020/12/03 01:54:21;;;;;;;55.08;28.25;;;10.60;75.20;;;;;;5005870;28;20052;-76
2020/12/03 01:57:03;;;;;;;47.75;28.63;;;10.60;75.30;;;;;;5015073;28;20034;-76
2020/12/03 01:59:36;;;;;;;51.25;26.17;;;10.60;75.30;;;;;;5032608;28;20030;-76
2020/12/03 02:02:03;;;;;;;44.33;26.50;;;10.60;75.40;;;;;;5014318;28;20440;-76
2020/12/03 02:04:28;;;;;;;47.65;26.95;;;10.60;75.40;;;;;;5015981;28;20044;-76
2020/12/03 02:07:05;;;;;;;49.53;27.58;;;10.60;75.30;;;;;;5030649;28;20037;-76
2020/12/03 02:09:31;;;;;;;46.83;27.60;;;10.60;75.20;;;;;;4997002;28;20050;-76
2020/12/03 02:11:57;;;;;;;50.08;25.42;;;10.60;75.10;;;;;;5025208;28;20348;-76
2020/12/03 02:14:23;;;;;;;45.03;24.95;;;10.60;75.00;;;;;;4997240;28;20038;-76
2020/12/03 02:16:49;;;;;;;43.42;26.00;;;10.50;75.00;;;;;;5014905;28;20038;-76
2020/12/03 02:19:19;;;;;;;43.85;25.65;;;10.50;75.20;;;;;;5031193;28;20038;-76
2020/12/03 02:21:51;;;;;;;43.67;25.63;;;10.50;75.00;;;;;;5027650;28;20034;-76
2020/12/03 02:24:17;;;;;;;45.22;25.75;;;10.50;74.50;;;;;;5023162;28;20483;-75
2020/12/03 02:26:50;;;;;;;43.15;25.05;;;10.50;74.90;;;;;;5001881;28;20044;-76
2020/12/03 02:29:18;;;;;;;46.85;25.95;;;10.50;74.80;;;;;;5014694;28;20041;-76
2020/12/03 02:31:45;;;;;;;38.67;22.38;;;10.50;75.00;;;;;;5033219;28;20053;-76
2020/12/03 02:34:10;;;;;;;46.75;23.67;;;10.50;75.00;;;;;;5013647;28;20524;-76
2020/12/03 02:36:36;;;;;;;45.55;26.02;;;10.40;74.80;;;;;;5013399;28;20033;-76
2020/12/03 02:39:02;;;;;;;41.08;22.73;;;10.40;74.70;;;;;;5013331;28;20064;-76
2020/12/03 02:41:27;;;;;;;45.75;23.60;;;10.40;74.60;;;;;;5010578;28;20094;-76
2020/12/03 02:43:53;;;;;;;39.47;23.48;;;10.40;74.70;;;;;;5013491;28;20038;-76
2020/12/03 02:46:18;;;;;;;35.75;23.00;;;10.30;74.80;;;;;;5030707;28;20056;-75
2020/12/03 02:48:44;;;;;;;37.60;22.40;;;10.30;74.90;;;;;;5029192;28;20041;-75
2020/12/03 02:51:13;;;;;;;42.42;24.40;;;10.40;74.80;;;;;;5032719;28;20203;-76
2020/12/03 02:53:38;;;;;;;44.65;23.77;;;10.40;74.70;;;;;;5031445;28;20049;-76
2020/12/03 02:56:04;;;;;;;35.92;23.00;;;10.40;74.60;;;;;;5031473;28;20061;-75
2020/12/03 02:58:29;;;;;;;43.92;24.25;;;10.40;74.60;;;;;;5028010;28;20107;-75
2020/12/03 03:00:55;;;;;;;41.60;22.05;;;10.40;74.70;;;;;;5013092;28;20044;-75
2020/12/03 03:03:21;;;;;;;38.28;20.52;;;10.40;74.70;;;;;;5030348;28;20459;-76
2020/12/03 03:05:46;;;;;;;37.85;20.73;;;10.40;74.70;;;;;;5012961;28;20033;-76
2020/12/03 03:08:12;;;;;;;38.13;20.08;;;10.40;74.50;;;;;;5004102;28;20041;-75
2020/12/03 03:10:37;;;;;;;36.22;20.08;;;10.40;74.60;;;;;;5021649;28;20095;-75
2020/12/03 03:13:03;;;;;;;34.00;21.65;;;10.40;74.30;;;;;;5003483;28;20041;-76
2020/12/03 03:15:29;;;;;;;32.05;19.17;;;10.40;74.30;;;;;;5030191;28;20033;-76
2020/12/03 03:17:54;;;;;;;37.60;21.67;;;10.40;74.30;;;;;;4999142;28;20779;-76
2020/12/03 03:20:20;;;;;;;34.30;18.67;;;10.30;74.20;;;;;;5021959;28;20037;-75
2020/12/03 03:22:45;;;;;;;33.55;19.05;;;10.30;74.20;;;;;;5028614;28;20041;-76
2020/12/03 03:25:11;;;;;;;34.75;20.08;;;10.40;74.20;;;;;;5010070;28;20033;-76
2020/12/03 03:27:37;;;;;;;36.13;21.38;;;10.40;74.10;;;;;;5012516;28;20034;-76
2020/12/03 03:30:07;;;;;;;38.17;19.17;;;10.40;74.10;;;;;;5031285;28;20037;-76
2020/12/03 03:32:33;;;;;;;33.63;18.83;;;10.40;74.00;;;;;;5029951;28;20120;-76
2020/12/03 03:34:59;;;;;;;36.13;19.85;;;10.40;74.10;;;;;;5029026;28;20148;-76
2020/12/03 03:37:25;;;;;;;41.80;19.73;;;10.40;74.00;;;;;;5012776;28;20137;-75
2020/12/03 03:39:51;;;;;;;37.67;19.90;;;10.40;73.90;;;;;;5011816;28;20530;-75
2020/12/03 03:42:16;;;;;;;33.03;18.52;;;10.30;73.90;;;;;;5031165;28;20355;-76
2020/12/03 03:44:42;;;;;;;37.92;19.42;;;10.30;74.00;;;;;;5031212;28;20386;-76
2020/12/03 03:47:08;;;;;;;32.28;19.08;;;10.30;74.00;;;;;;5030545;28;20033;-76
2020/12/03 03:49:33;;;;;;;38.40;20.08;;;10.30;74.00;;;;;;5028812;28;20029;-75
2020/12/03 03:51:59;;;;;;;34.92;19.70;;;10.30;73.90;;;;;;5030223;28;20034;-76
2020/12/03 03:54:24;;;;;;;35.75;19.35;;;10.30;74.00;;;;;;5029838;28;20116;-76
2020/12/03 03:56:50;;;;;;;36.30;18.08;;;10.30;73.90;;;;;;5030354;28;20124;-75
2020/12/03 03:59:16;;;;;;;29.50;18.13;;;10.30;73.90;;;;;;5011588;28;20041;-76
2020/12/03 04:01:41;;;;;;;33.45;17.25;;;10.30;73.90;;;;;;5012958;28;20133;-76
2020/12/03 04:04:07;;;;;;;32.67;17.70;;;10.30;73.90;;;;;;5031204;28;20036;-76
2020/12/03 04:06:33;;;;;;;29.45;18.08;;;10.40;73.90;;;;;;5022999;28;20044;-76
2020/12/03 04:08:59;;;;;;;39.63;19.08;;;10.40;73.80;;;;;;5028218;28;20053;-76
2020/12/03 04:11:24;;;;;;;33.88;18.13;;;10.40;73.70;;;;;;5011625;28;20057;-76
2020/12/03 04:13:50;;;;;;;37.55;20.38;;;10.50;73.60;;;;;;5029247;28;20044;-76
2020/12/03 04:16:16;;;;;;;34.63;17.90;;;10.40;73.50;;;;;;5029944;28;20408;-76
2020/12/03 04:18:42;;;;;;;33.90;19.10;;;10.40;73.30;;;;;;5012467;28;20044;-76
2020/12/03 04:21:09;;;;;;;37.10;19.95;;;10.40;73.40;;;;;;5011553;28;20041;-76
2020/12/03 04:23:35;;;;;;;34.72;20.17;;;10.40;73.40;;;;;;5026877;28;20032;-75
2020/12/03 04:26:01;;;;;;;34.97;19.92;;;10.40;73.20;;;;;;5030181;28;20029;-76
2020/12/03 04:28:27;;;;;;;43.50;20.15;;;10.40;73.50;;;;;;5011810;28;20060;-75
2020/12/03 04:30:54;;;;;;;33.30;18.23;;;10.40;73.60;;;;;;5029997;28;20029;-76
2020/12/03 04:33:20;;;;;;;40.88;21.80;;;10.40;73.70;;;;;;5029519;28;20040;-76
2020/12/03 04:35:46;;;;;;;34.85;19.15;;;10.40;73.50;;;;;;5028742;28;20025;-76
2020/12/03 04:38:14;;;;;;;34.70;19.08;;;10.40;73.50;;;;;;5029492;28;20052;-75
2020/12/03 04:40:42;;;;;;;36.80;20.38;;;10.40;73.50;;;;;;5029468;28;20462;-76
2020/12/03 04:43:28;;;;;;;38.38;20.42;;;10.40;73.60;;;;;;5012999;28;20026;-76
2020/12/03 04:46:46;;;;;;;43.45;20.25;;;10.30;73.90;;;;;;5030378;28;20034;-76
2020/12/03 04:49:36;;;;;;;34.28;20.13;;;10.40;73.90;;;;;;4985285;28;20038;-75
2020/12/03 04:52:24;;;;;;;40.78;20.42;;;10.40;73.80;;;;;;5029265;28;20033;-76
2020/12/03 04:55:11;;;;;;;40.13;22.05;;;10.30;73.90;;;;;;5011302;28;20018;-76
2020/12/03 04:57:42;;;;;;;38.63;19.42;;;10.30;74.10;;;;;;5030898;28;20036;-76
2020/12/03 05:00:16;;;;;;;52.90;20.23;;;10.30;74.10;;;;;;5029716;28;20037;-76
2020/12/03 05:02:54;;;;;;;31.75;18.48;;;10.40;74.10;;;;;;5012494;28;20033;-76
2020/12/03 05:05:46;;;;;;;34.50;18.92;;;10.40;74.20;;;;;;5029657;28;20113;-76
2020/12/03 05:08:23;;;;;;;44.35;21.35;;;10.40;74.00;;;;;;5029995;28;20024;-76
2020/12/03 05:10:48;;;;;;;38.47;20.90;;;10.40;74.10;;;;;;5029041;28;20069;-76
2020/12/03 05:13:25;;;;;;;36.63;20.92;;;10.40;74.10;;;;;;5029061;28;20038;-76
2020/12/03 05:15:56;;;;;;;37.47;20.00;;;10.40;74.10;;;;;;5028904;28;20028;-76
2020/12/03 05:18:51;;;;;;;37.15;19.02;;;10.30;74.10;;;;;;5028496;28;20108;-76
2020/12/03 05:21:22;;;;;;;43.88;21.15;;;10.40;74.10;;;;;;5029335;28;20538;-75
2020/12/03 05:23:47;;;;;;;32.90;18.40;;;10.40;74.10;;;;;;5028688;28;20026;-76
2020/12/03 05:26:17;;;;;;;42.20;19.70;;;10.40;74.00;;;;;;5029250;28;20044;-76
2020/12/03 05:28:51;;;;;;;42.45;24.77;;;10.40;73.90;;;;;;5028569;28;20116;-76
2020/12/03 05:31:35;;;;;;;33.47;21.55;;;10.30;74.00;;;;;;5028484;28;20040;-75
2020/12/03 05:34:08;;;;;;;33.45;19.40;;;10.30;74.40;;;;;;5031724;28;20099;-76
2020/12/03 05:36:56;;;;;;;35.10;19.50;;;10.40;74.50;;;;;;5032057;28;20026;-76
2020/12/03 05:39:28;;;;;;;37.83;19.88;;;10.40;74.30;;;;;;5031421;28;20057;-76
2020/12/03 05:41:58;;;;;;;36.95;20.77;;;10.40;74.30;;;;;;5002958;28;20034;-76
2020/12/03 05:44:41;;;;;;;35.05;19.65;;;10.50;74.30;;;;;;5036945;28;20029;-76
2020/12/03 05:47:26;;;;;;;38.03;19.90;;;10.50;74.10;;;;;;5013757;28;20026;-76
2020/12/03 05:49:56;;;;;;;37.22;18.98;;;10.50;74.10;;;;;;5029912;28;20045;-76
2020/12/03 05:52:25;;;;;;;30.20;17.45;;;10.50;74.00;;;;;;5037687;28;20474;-76
2020/12/03 05:55:08;;;;;;;38.92;21.15;;;10.50;74.10;;;;;;5032625;28;20447;-76
2020/12/03 05:57:35;;;;;;;33.63;19.52;;;10.50;74.30;;;;;;5033262;28;20104;-76
2020/12/03 06:00:10;;;;;;;39.10;19.77;;;10.50;74.50;;;;;;5032834;28;20474;-75
2020/12/03 06:03:00;;;;;;;31.83;18.73;;;10.40;74.50;;;;;;5032456;28;20033;-76
2020/12/03 06:05:57;;;;;;;35.10;20.90;;;10.40;74.70;;;;;;5032024;28;20029;-76
2020/12/03 06:08:22;;;;;;;37.05;19.63;;;10.40;75.00;;;;;;5031718;28;20026;-76
2020/12/03 06:11:13;;;;;;;31.63;19.52;;;10.40;75.20;;;;;;5015919;28;20339;-76
2020/12/03 06:13:59;;;;;;;33.60;16.52;;;10.40;75.30;;;;;;5032390;28;20512;-76
2020/12/03 06:16:40;;;;;;;31.17;18.20;;;10.40;75.60;;;;;;5032942;28;20018;-76
2020/12/03 06:19:21;;;;;;;26.15;14.75;;;10.30;75.60;;;;;;5032859;28;20112;-76
2020/12/03 06:22:32;;;;;;;29.83;16.38;;;10.40;75.80;;;;;;5022320;28;20096;-76
2020/12/03 06:25:18;;;;;;;25.88;17.70;;;10.40;76.00;;;;;;5008424;28;20046;-76
2020/12/03 06:28:17;;;;;;;29.40;15.45;;;10.30;76.20;;;;;;5004405;28;20498;-75
2020/12/03 06:30:59;;;;;;;27.08;13.82;;;10.30;76.30;;;;;;5028259;28;20033;-75
2020/12/03 06:33:53;;;;;;;23.65;14.35;;;10.30;76.40;;;;;;5012460;28;20600;-76
2020/12/03 06:36:40;;;;;;;23.40;14.18;;;10.40;76.40;;;;;;5032025;28;20025;-76
2020/12/03 06:39:46;;;;;;;24.27;15.02;;;10.40;76.30;;;;;;5032248;28;20052;-76
2020/12/03 06:42:16;;;;;;;21.85;13.48;;;10.40;76.20;;;;;;5031475;28;20470;-76
2020/12/03 06:44:50;;;;;;;24.42;15.70;;;10.40;76.30;;;;;;5032074;28;20036;-76
2020/12/03 06:47:36;;;;;;;20.83;14.55;;;10.40;76.50;;;;;;5027943;28;20427;-75
2020/12/03 06:50:28;;;;;;;25.77;15.85;;;10.40;76.50;;;;;;5031656;28;20485;-75
2020/12/03 06:53:27;;;;;;;25.33;13.85;;;10.40;76.50;;;;;;5012231;28;20689;-76
2020/12/03 06:56:29;;;;;;;26.77;16.58;;;10.40;76.60;;;;;;5028670;28;20030;-76
2020/12/03 06:59:01;;;;;;;23.27;13.73;;;10.40;76.70;;;;;;5029737;28;20029;-76
2020/12/03 07:01:54;;;;;;;21.98;13.75;;;10.30;76.80;;;;;;5030119;28;20163;-76
2020/12/03 07:04:19;;;;;;;19.97;12.97;;;10.30;77.00;;;;;;5027897;28;20033;-76
2020/12/03 07:07:23;;;;;;;23.00;12.95;;;10.30;77.00;;;;;;5014021;28;20034;-76
2020/12/03 07:10:11;;;;;;;22.65;12.27;;;11.80;77.90;;;;;;5030875;28;20045;-76
2020/12/03 07:12:58;;;;;;;23.92;13.68;;;10.20;77.10;;;;;;5022882;28;20032;-75
2020/12/03 07:16:02;;;;;;;23.88;12.88;;;10.20;77.30;;;;;;5008941;28;20053;-76
2020/12/03 07:18:34;;;;;;;20.10;12.60;;;10.20;77.40;;;;;;5021717;28;20115;-76
2020/12/03 07:21:18;;;;;;;22.70;13.60;;;10.20;77.50;;;;;;5032239;28;20028;-76
2020/12/03 07:24:02;;;;;;;21.40;13.90;;;10.20;77.30;;;;;;5029931;28;20083;-76
2020/12/03 07:27:04;;;;;;;23.63;11.82;;;10.20;77.40;;;;;;5030434;28;20037;-76
2020/12/03 07:29:55;;;;;;;23.88;14.13;;;10.20;77.40;;;;;;5026698;28;20096;-76
2020/12/03 07:32:58;;;;;;;19.60;13.02;;;10.20;77.60;;;;;;5020553;28;20128;-76
2020/12/03 07:35:55;;;;;;;28.58;15.13;;;10.20;77.60;;;;;;5006555;28;20450;-76
2020/12/03 07:38:58;;;;;;;23.45;14.35;;;10.10;77.90;;;;;;5029282;28;20032;-75
2020/12/03 07:41:27;;;;;;;25.88;14.38;;;10.00;77.90;;;;;;4998655;28;20076;-75
2020/12/03 07:44:31;;;;;;;29.25;14.55;;;10.00;78.00;;;;;;5030499;28;20501;-76
2020/12/03 07:47:20;;;;;;;26.70;15.10;;;10.10;78.00;;;;;;5025242;28;20108;-76
2020/12/03 07:49:53;;;;;;;36.53;17.45;;;10.10;77.70;;;;;;5029980;28;20109;-76
2020/12/03 07:52:38;;;;;;;32.40;16.40;;;10.10;77.70;;;;;;5031647;28;20515;-76
2020/12/03 07:55:22;;;;;;;34.67;19.30;;;10.10;77.80;;;;;;5028473;28;20075;-76
2020/12/03 07:58:14;;;;;;;37.22;16.83;;;10.10;77.90;;;;;;5012917;28;20502;-76
2020/12/03 08:00:49;;;;;;;40.83;19.70;;;10.10;77.70;;;;;;5020597;28;20064;-76
2020/12/03 08:03:51;;;;;;;31.88;16.80;;;10.10;77.70;;;;;;5012329;28;20057;-76
2020/12/03 08:06:24;;;;;;;32.20;19.17;;;10.10;77.60;;;;;;4917706;29;20039;-76
2020/12/03 08:08:59;;;;;;;35.35;21.23;;;10.00;77.60;;;;;;4996157;28;20060;-76
2020/12/03 08:11:38;;;;;;;35.38;19.95;;;10.00;77.70;;;;;;5029168;28;20450;-76
2020/12/03 08:14:28;;;;;;;27.10;15.32;;;9.90;77.90;;;;;;5028309;28;20026;-75
2020/12/03 08:16:56;;;;;;;32.55;18.23;;;10.00;77.80;;;;;;5027637;28;20028;-77
2020/12/03 08:19:29;;;;;;;32.70;18.73;;;10.00;77.70;;;;;;5030898;28;20100;-77
2020/12/03 08:21:55;;;;;;;33.05;18.05;;;10.00;77.60;;;;;;5028767;28;20034;-75
2020/12/03 08:24:30;;;;;;;32.88;16.70;;;10.10;77.70;;;;;;5027174;28;20391;-77
2020/12/03 08:27:04;;;;;;;30.90;17.73;;;8.90;76.60;;;;;;5028771;28;20235;-78
2020/12/03 08:29:39;;;;;;;30.67;16.45;;;10.00;77.50;;;;;;5011439;28;20045;-78
2020/12/03 08:32:04;;;;;;;29.25;16.35;;;9.90;77.70;;;;;;5031793;28;20041;-77
2020/12/03 08:34:37;;;;;;;27.23;16.17;;;10.00;77.70;;;;;;5044163;28;20118;-78
2020/12/03 08:37:05;;;;;;;28.35;15.73;;;10.00;77.50;;;;;;5029606;28;20033;-77
2020/12/03 08:39:31;;;;;;;26.70;14.48;;;10.00;77.70;;;;;;5027724;28;20033;-77
2020/12/03 08:41:58;;;;;;;26.08;15.18;;;10.00;77.80;;;;;;5025051;28;20153;-77
2020/12/03 08:44:24;;;;;;;33.97;17.38;;;10.00;77.90;;;;;;5028075;28;20123;-77
2020/12/03 08:46:53;;;;;;;26.92;15.75;;;10.00;78.00;;;;;;5032504;28;20030;-76
2020/12/03 08:49:23;;;;;;;36.50;16.95;;;10.00;77.40;;;;;;5027146;28;20033;-76
2020/12/03 08:51:58;;;;;;;26.48;15.63;;;10.00;77.70;;;;;;5030887;28;20040;-76
2020/12/03 08:54:30;;;;;;;33.83;16.77;;;9.90;77.60;;;;;;5026950;28;20349;-75
2020/12/03 08:56:58;;;;;;;28.70;16.08;;;10.00;77.80;;;;;;5029068;28;20034;-77
2020/12/03 08:59:39;;;;;;;30.02;15.50;;;10.00;77.60;;;;;;5026586;28;20067;-76
2020/12/03 09:02:10;;;;;;;33.85;15.38;;;10.10;77.50;;;;;;5027300;28;20122;-76
2020/12/03 09:04:42;;;;;;;26.40;15.32;;;10.20;77.30;;;;;;5028177;28;20033;-75
2020/12/03 09:07:13;;;;;;;26.80;15.52;;;10.10;76.90;;;;;;5037397;28;20052;-77
2020/12/03 09:09:44;;;;;;;26.73;14.68;;;10.10;77.00;;;;;;5030151;28;20431;-78
2020/12/03 09:12:12;;;;;;;31.55;16.65;;;10.10;76.20;;;;;;5030352;28;20036;-78
2020/12/03 09:14:41;;;;;;;24.30;14.50;;;10.10;76.50;;;;;;5025679;28;20033;-78
2020/12/03 09:17:12;;;;;;;31.35;16.83;;;10.10;76.10;;;;;;5031454;28;20045;-78
2020/12/03 09:19:38;;;;;;;26.85;14.70;;;10.00;75.80;;;;;;5012524;28;20032;-78
2020/12/03 09:22:04;;;;;;;20.42;11.95;;;10.10;76.20;;;;;;5012087;28;20033;-78
2020/12/03 09:24:30;;;;;;;24.92;14.18;;;10.20;76.10;;;;;;5009995;28;20025;-77
2020/12/03 09:27:04;;;;;;;27.70;14.70;;;10.20;75.90;;;;;;4994624;28;20356;-77
2020/12/03 09:29:29;;;;;;;21.20;12.70;;;10.20;75.50;;;;;;5030581;28;20033;-78
2020/12/03 09:32:04;;;;;;;28.38;16.17;;;10.20;75.40;;;;;;5030465;28;20450;-77
2020/12/03 09:34:33;;;;;;;29.42;13.85;;;10.20;75.50;;;;;;5014963;28;20052;-78
2020/12/03 09:36:59;;;;;;;26.50;14.73;;;10.20;75.50;;;;;;5030165;28;20045;-78
2020/12/03 09:39:26;;;;;;;22.27;14.23;;;10.10;75.80;;;;;;5013730;28;20095;-78
2020/12/03 09:41:53;;;;;;;30.50;16.52;;;10.20;76.00;;;;;;5027164;28;20033;-78
2020/12/03 09:44:20;;;;;;;23.98;14.00;;;10.20;75.90;;;;;;4998520;28;20079;-77
2020/12/03 09:46:48;;;;;;;26.77;14.30;;;10.20;75.90;;;;;;5017263;28;20045;-78
2020/12/03 09:49:15;;;;;;;25.25;15.88;;;10.20;76.00;;;;;;5031551;28;20069;-77
2020/12/03 09:51:43;;;;;;;24.02;14.88;;;10.10;76.00;;;;;;5032382;28;20029;-78
2020/12/03 09:54:10;;;;;;;31.25;15.05;;;10.10;76.30;;;;;;5013207;28;20034;-78
2020/12/03 09:56:39;;;;;;;30.20;16.23;;;10.10;76.50;;;;;;5030776;28;20518;-78
2020/12/03 09:59:12;;;;;;;29.88;16.60;;;10.10;76.70;;;;;;5031965;28;20037;-78
2020/12/03 10:01:59;;;;;;;31.35;17.13;;;10.10;76.60;;;;;;5013103;28;20033;-78
2020/12/03 10:04:39;;;;;;;35.38;17.73;;;10.10;76.70;;;;;;5032039;28;20079;-78
2020/12/03 10:07:34;;;;;;;33.33;16.98;;;10.00;76.80;;;;;;5034181;28;20036;-78
2020/12/03 10:10:18;;;;;;;29.33;16.02;;;10.00;76.90;;;;;;5037381;28;20055;-79
2020/12/03 10:13:03;;;;;;;32.33;17.52;;;9.90;77.20;;;;;;5033203;28;20025;-77
2020/12/03 10:15:57;;;;;;;29.30;16.60;;;9.90;77.40;;;;;;5031144;28;20037;-79
2020/12/03 10:18:24;;;;;;;27.05;15.50;;;9.80;77.60;;;;;;5029660;28;20117;-78
2020/12/03 10:20:51;;;;;;;28.45;15.85;;;9.90;77.40;;;;;;5029176;28;20033;-78
2020/12/03 10:23:37;;;;;;;29.63;16.52;;;9.90;77.50;;;;;;5032974;28;20041;-77
2020/12/03 10:26:11;;;;;;;27.52;15.85;;;9.80;77.70;;;;;;5030905;28;20030;-77
2020/12/03 10:28:48;;;;;;;28.98;16.02;;;9.80;77.80;;;;;;5031166;28;20416;-78
2020/12/03 10:31:15;;;;;;;28.05;15.45;;;9.80;77.80;;;;;;5028864;28;20052;-78
2020/12/03 10:33:41;;;;;;;29.35;16.35;;;9.80;78.10;;;;;;5033635;28;20033;-78
2020/12/03 10:36:16;;;;;;;29.92;15.05;;;9.70;77.80;;;;;;5032076;28;20037;-78
2020/12/03 10:38:47;;;;;;;25.27;15.93;;;9.70;77.90;;;;;;5029625;28;20364;-78
2020/12/03 10:41:14;;;;;;;33.90;17.13;;;9.70;78.00;;;;;;5033915;28;20060;-77
2020/12/03 10:43:44;;;;;;;28.63;15.30;;;9.60;78.20;;;;;;5032039;28;20038;-77
2020/12/03 10:46:21;;;;;;;27.90;15.88;;;9.60;78.40;;;;;;5032062;28;20030;-76
2020/12/03 10:48:49;;;;;;;34.10;18.30;;;9.70;78.20;;;;;;5008674;28;20075;-77
2020/12/03 10:51:17;;;;;;;27.60;13.93;;;9.70;77.80;;;;;;5030625;28;20112;-77
2020/12/03 10:53:47;;;;;;;31.67;16.17;;;9.80;77.90;;;;;;5014311;28;20447;-77
2020/12/03 10:56:17;;;;;;;34.63;17.38;;;9.80;77.30;;;;;;5030279;28;20180;-77
2020/12/03 10:59:32;;;;;;;26.83;15.20;;;9.70;77.50;;;;;;5027784;28;20128;-77
2020/12/03 11:01:57;;;;;;;28.02;15.82;;;9.60;77.70;;;;;;5030360;28;20049;-78
2020/12/03 11:04:24;;;;;;;28.13;15.73;;;9.50;78.20;;;;;;5012288;28;20387;-77
2020/12/03 11:06:50;;;;;;;69.00;26.98;;;9.50;78.40;;;;;;5012766;28;20033;-77
2020/12/03 11:09:21;;;;;;;32.30;16.90;;;9.50;78.30;;;;;;5029632;28;20044;-76
2020/12/03 11:11:49;;;;;;;44.08;18.80;;;9.50;78.20;;;;;;4997002;28;20109;-77
2020/12/03 11:14:16;;;;;;;37.05;18.60;;;9.60;78.30;;;;;;5006829;28;20485;-77
2020/12/03 11:16:54;;;;;;;30.88;17.75;;;9.60;78.10;;;;;;5013390;28;20033;-77
2020/12/03 11:19:23;;;;;;;28.27;17.02;;;9.60;78.00;;;;;;5011116;28;20040;-78
2020/12/03 11:22:17;;;;;;;31.98;16.52;;;9.70;78.00;;;;;;5032395;28;20041;-77
2020/12/03 11:24:50;;;;;;;30.70;16.17;;;9.80;77.50;;;;;;5014478;28;20056;-77
2020/12/03 11:27:20;;;;;;;28.77;15.88;;;9.90;77.00;;;;;;5030247;28;20030;-77
2020/12/03 11:29:46;;;;;;;31.45;17.08;;;9.90;76.90;;;;;;5027516;28;20144;-76
2020/12/03 11:32:25;;;;;;;32.25;16.02;;;9.90;77.00;;;;;;5013118;28;20037;-77
2020/12/03 11:34:51;;;;;;;28.73;14.93;;;9.90;76.90;;;;;;5011309;28;20104;-76
2020/12/03 11:37:24;;;;;;;29.45;15.65;;;10.00;76.50;;;;;;5031089;28;20034;-77
2020/12/03 11:40:01;;;;;;;28.25;16.10;;;10.00;76.30;;;;;;5012111;28;20025;-77
2020/12/03 11:42:48;;;;;;;28.38;16.60;;;10.00;76.20;;;;;;5034539;28;20087;-77
2020/12/03 11:48:07;;;;;;;30.05;16.67;;;10.00;76.00;;;;;;5029698;28;20042;-77
2020/12/03 11:50:39;;;;;;;25.52;15.93;;;10.10;75.80;;;;;;5023284;28;20036;-78
2020/12/03 11:53:06;;;;;;;35.33;16.75;;;10.20;75.60;;;;;;5024707;28;20498;-79
2020/12/03 11:55:40;;;;;;;24.98;15.25;;;11.40;75.90;;;;;;5028827;28;20033;-79
2020/12/03 11:58:07;;;;;;;27.40;15.55;;;10.20;75.30;;;;;;5029671;28;20033;-79
2020/12/03 12:00:34;;;;;;;28.30;16.55;;;10.20;75.10;;;;;;5029132;28;20049;-79
2020/12/03 12:03:18;;;;;;;26.83;15.85;;;10.20;75.00;;;;;;5028174;28;20036;-78
2020/12/03 12:05:51;;;;;;;21.45;13.70;;;10.20;74.90;;;;;;5010337;28;20429;-79
2020/12/03 12:11:34;;;;;;;21.40;13.77;;;10.20;75.00;;;;;;5029335;28;20202;-78
2020/12/03 12:13:29;;;;;;;28.10;13.65;;;10.30;74.80;;;;;;5014955;28;20230;-79
2020/12/03 12:15:55;;;;;;;22.35;13.65;;;10.30;74.50;;;;;;5028239;28;20486;-78
2020/12/03 12:18:21;;;;;;;26.00;12.77;;;10.30;74.70;;;;;;5029538;28;20030;-78
2020/12/03 12:20:48;;;;;;;26.00;14.93;;;10.20;74.00;;;;;;5028235;28;20049;-78
2020/12/03 12:23:13;;;;;;;25.80;13.77;;;10.20;74.00;;;;;;5009875;28;20049;-77
2020/12/03 12:25:39;;;;;;;23.60;13.13;;;10.00;73.90;;;;;;5029614;28;20057;-78
2020/12/03 12:28:05;;;;;;;21.23;11.65;;;10.00;74.60;;;;;;5028299;28;20471;-78
2020/12/03 12:30:32;;;;;;;19.70;13.10;;;10.00;74.70;;;;;;5027617;28;20037;-78
2020/12/03 12:32:58;;;;;;;20.75;13.15;;;10.00;74.60;;;;;;5028238;28;20033;-79
2020/12/03 12:35:24;;;;;;;21.55;12.25;;;10.10;74.40;;;;;;5028408;28;20057;-79
2020/12/03 12:37:49;;;;;;;16.60;10.57;;;10.20;74.50;;;;;;5027128;28;20423;-79
2020/12/03 12:40:15;;;;;;;19.27;11.25;;;10.20;74.30;;;;;;5027718;28;20160;-78
2020/12/03 12:42:41;;;;;;;21.02;11.10;;;10.20;73.20;;;;;;5030359;28;20071;-78
2020/12/03 12:45:06;;;;;;;18.50;12.15;;;10.20;73.70;;;;;;5032460;28;20040;-78
2020/12/03 12:47:32;;;;;;;17.42;12.48;;;10.20;73.90;;;;;;5033481;28;20029;-78
2020/12/03 12:49:58;;;;;;;18.90;11.35;;;10.10;73.60;;;;;;5032481;28;20061;-79
2020/12/03 12:52:23;;;;;;;18.25;10.88;;;10.00;73.70;;;;;;5031853;28;20100;-79
2020/12/03 12:54:49;;;;;;;19.10;12.68;;;10.00;74.20;;;;;;5027357;28;20034;-79
2020/12/03 12:57:15;;;;;;;17.38;10.93;;;10.00;74.20;;;;;;5015079;28;20035;-78
2020/12/03 12:59:40;;;;;;;22.88;11.93;;;10.00;74.30;;;;;;5032999;28;20038;-79
2020/12/03 13:02:06;;;;;;;19.60;12.18;;;9.90;74.80;;;;;;5015530;28;20479;-77